Airfield :
LOGIN :

Register | Disclaimer

   EN    FR    IT 

 










Legend :    VFR   Marginal VFR   IFR   Intensive IFR   Very Intensive IFR
Visi :
Ceiling :
>= 8 km
>= 3000ft
5 to 8 km
1000 to 3000 ft
1500m to 5 km
500 to 1000 ft
800 to 1500m
200 to 500 ft
< 800m
< 200 ft
Symbols :   Thunderstorms  Fog  Heavy snow  Heavy precipitations  Wind > 20 kt
SIGMETs :     Misc.  Thunderstorms  Icing  Turbulence  Mountain Waves  Volcanic Ashes






- Airport Elevation : 0 ft


ETEB - Ansbach Army Heliport

CURRENT METAR :
  • 231255Z AUTO 02008KT 9999 FEW050 SCT080 BKN160 08/M03 A2994 RMK AO2 SLP164 T00811034 FZRANO $

EXPIRED METARs :
  • 231155Z AUTO 06007KT 9999 SCT047 BKN075 BKN170 07/M04 A2995 RMK AO2 SLP167 T00701038 10078 21007 57016 FZRANO $
  • 231055Z AUTO 03008KT 9999 SCT041 06/M04 A2997 RMK AO2 SLP175 T00641038 FZRANO $
  • 230955Z AUTO 04011KT 9999 FEW038 07/M03 A2998 RMK AO2 SLP177 T00661031 FZRANO $
  • 230855Z AUTO 06009KT 9999 CLR 05/M04 A3001 RMK AO2 SLP188 T00461039 55006 FZRANO $

TAF TAF ETEB
Valid from the 23 at 07:00 until the 24 at 13:00 UTC


230702Z 2307/2413 05012KT 9999 FEW040 QNH3000INS
BECMG 2310/2311 04010KT 9999 BKN040 BKN080 QNH2991INS
BECMG 2319/2320 VRB06KT 9999 SCT030 BKN050 QNH2978INS
BECMG 2408/2409 25015KT 9999 BKN030 OVC045 QNH2977INS
BECMG 2409/2410 25012G18KT 9999 BKN025 OVC030 QNH2975INS
BECMG 2412/2413 26010G15KT 9000 DZ FEW030 OVC045 QNH2972INS TX08/2315Z TN00/2404Z



MET'MAP, your aeronautical weather chart ! - Copyright ORBIFLY December 2007 - Disclaimer

ORBIFLY MET'MAP TEAM :

Programming & Development : Alexandra Zaïnal
Original concept : Baudouin d'Aumeries
Technical & hardware support : Manuel Goepfert
Assistance : Marc-Olivier Méhu




SOURCES & CREDITS :

   NOAA